sensor_id;sensor_type;location;lat;lon;timestamp;temperature;humidity
22674;DHT22;11504;43.334;21.918;2023-06-19T00:00:14;17.4;100.0
22674;DHT22;11504;43.334;21.918;2023-06-19T00:04:52;17.4;100.0
22674;DHT22;11504;43.334;21.918;2023-06-19T00:09:28;17.4;100.0
22674;DHT22;11504;43.334;21.918;2023-06-19T00:14:05;17.2;100.0
22674;DHT22;11504;43.334;21.918;2023-06-19T00:18:42;17.2;100.0
22674;DHT22;11504;43.334;21.918;2023-06-19T00:23:19;16.9;100.0
22674;DHT22;11504;43.334;21.918;2023-06-19T00:27:56;16.9;100.0
22674;DHT22;11504;43.334;21.918;2023-06-19T00:32:32;16.9;100.0
22674;DHT22;11504;43.334;21.918;2023-06-19T00:37:09;16.8;100.0
22674;DHT22;11504;43.334;21.918;2023-06-19T00:41:47;16.8;100.0
22674;DHT22;11504;43.334;21.918;2023-06-19T00:46:28;16.7;100.0
22674;DHT22;11504;43.334;21.918;2023-06-19T00:51:06;16.7;100.0
22674;DHT22;11504;43.334;21.918;2023-06-19T00:55:48;16.7;100.0
22674;DHT22;11504;43.334;21.918;2023-06-19T01:00:28;16.7;100.0
22674;DHT22;11504;43.334;21.918;2023-06-19T01:05:05;16.7;100.0
22674;DHT22;11504;43.334;21.918;2023-06-19T01:10:07;16.7;100.0
22674;DHT22;11504;43.334;21.918;2023-06-19T01:15:01;16.7;100.0
22674;DHT22;11504;43.334;21.918;2023-06-19T01:19:44;16.7;100.0
22674;DHT22;11504;43.334;21.918;2023-06-19T01:24:21;16.7;100.0
22674;DHT22;11504;43.334;21.918;2023-06-19T01:28:58;16.7;100.0
22674;DHT22;11504;43.334;21.918;2023-06-19T01:33:40;16.6;100.0
22674;DHT22;11504;43.334;21.918;2023-06-19T01:38:23;16.6;100.0
22674;DHT22;11504;43.334;21.918;2023-06-19T01:43:05;16.6;100.0
22674;DHT22;11504;43.334;21.918;2023-06-19T01:47:46;16.6;100.0
22674;DHT22;11504;43.334;21.918;2023-06-19T01:52:24;16.6;100.0
22674;DHT22;11504;43.334;21.918;2023-06-19T01:57:03;16.5;100.0
22674;DHT22;11504;43.334;21.918;2023-06-19T02:01:40;16.5;100.0
22674;DHT22;11504;43.334;21.918;2023-06-19T02:06:17;16.3;100.0
22674;DHT22;11504;43.334;21.918;2023-06-19T02:10:54;16.3;100.0
22674;DHT22;11504;43.334;21.918;2023-06-19T02:15:30;16.1;100.0
22674;DHT22;11504;43.334;21.918;2023-06-19T02:20:11;16.1;100.0
22674;DHT22;11504;43.334;21.918;2023-06-19T02:24:48;15.9;100.0
22674;DHT22;11504;43.334;21.918;2023-06-19T02:29:25;15.9;100.0
22674;DHT22;11504;43.334;21.918;2023-06-19T02:34:01;15.8;100.0
22674;DHT22;11504;43.334;21.918;2023-06-19T02:38:38;15.8;100.0
22674;DHT22;11504;43.334;21.918;2023-06-19T02:43:14;15.8;100.0
22674;DHT22;11504;43.334;21.918;2023-06-19T02:47:51;15.8;100.0
22674;DHT22;11504;43.334;21.918;2023-06-19T02:52:28;15.8;100.0
22674;DHT22;11504;43.334;21.918;2023-06-19T02:57:06;15.7;100.0
22674;DHT22;11504;43.334;21.918;2023-06-19T03:01:43;15.7;100.0
22674;DHT22;11504;43.334;21.918;2023-06-19T03:06:20;15.6;100.0
22674;DHT22;11504;43.334;21.918;2023-06-19T03:10:56;15.6;100.0
22674;DHT22;11504;43.334;21.918;2023-06-19T03:15:33;15.6;100.0
22674;DHT22;11504;43.334;21.918;2023-06-19T03:20:11;15.6;100.0
22674;DHT22;11504;43.334;21.918;2023-06-19T03:24:48;15.5;100.0
22674;DHT22;11504;43.334;21.918;2023-06-19T03:29:24;15.5;100.0
22674;DHT22;11504;43.334;21.918;2023-06-19T03:34:01;15.6;100.0
22674;DHT22;11504;43.334;21.918;2023-06-19T03:38:37;15.6;100.0
22674;DHT22;11504;43.334;21.918;2023-06-19T03:43:14;15.6;100.0
22674;DHT22;11504;43.334;21.918;2023-06-19T03:47:51;15.6;100.0
22674;DHT22;11504;43.334;21.918;2023-06-19T03:52:27;15.6;100.0
22674;DHT22;11504;43.334;21.918;2023-06-19T03:57:05;15.8;100.0
22674;DHT22;11504;43.334;21.918;2023-06-19T04:01:42;15.8;100.0
22674;DHT22;11504;43.334;21.918;2023-06-19T04:06:19;15.9;100.0
22674;DHT22;11504;43.334;21.918;2023-06-19T04:10:56;15.9;100.0
22674;DHT22;11504;43.334;21.918;2023-06-19T04:15:33;18.7;100.0
22674;DHT22;11504;43.334;21.918;2023-06-19T04:20:11;18.7;100.0
22674;DHT22;11504;43.334;21.918;2023-06-19T04:24:48;21.5;100.0
22674;DHT22;11504;43.334;21.918;2023-06-19T04:29:25;21.5;100.0
22674;DHT22;11504;43.334;21.918;2023-06-19T04:34:02;24.3;100.0
22674;DHT22;11504;43.334;21.918;2023-06-19T04:38:39;24.3;100.0
22674;DHT22;11504;43.334;21.918;2023-06-19T04:43:16;24.3;100.0
22674;DHT22;11504;43.334;21.918;2023-06-19T04:47:52;27.1;100.0
22674;DHT22;11504;43.334;21.918;2023-06-19T04:52:29;27.1;100.0
22674;DHT22;11504;43.334;21.918;2023-06-19T04:57:07;28.2;100.0
22674;DHT22;11504;43.334;21.918;2023-06-19T05:01:44;28.2;100.0
22674;DHT22;11504;43.334;21.918;2023-06-19T05:06:20;29.4;100.0
22674;DHT22;11504;43.334;21.918;2023-06-19T05:10:57;29.4;100.0
22674;DHT22;11504;43.334;21.918;2023-06-19T05:15:34;30.8;100.0
22674;DHT22;11504;43.334;21.918;2023-06-19T05:20:12;30.8;100.0
22674;DHT22;11504;43.334;21.918;2023-06-19T05:24:49;32.1;100.0
22674;DHT22;11504;43.334;21.918;2023-06-19T05:29:25;32.1;100.0
22674;DHT22;11504;43.334;21.918;2023-06-19T05:34:02;32.6;100.0
22674;DHT22;11504;43.334;21.918;2023-06-19T05:38:38;32.6;100.0
22674;DHT22;11504;43.334;21.918;2023-06-19T05:43:15;32.6;100.0
22674;DHT22;11504;43.334;21.918;2023-06-19T05:47:51;33.0;100.0
22674;DHT22;11504;43.334;21.918;2023-06-19T05:52:28;33.0;100.0
22674;DHT22;11504;43.334;21.918;2023-06-19T05:57:06;33.5;100.0
22674;DHT22;11504;43.334;21.918;2023-06-19T06:01:43;33.5;100.0
22674;DHT22;11504;43.334;21.918;2023-06-19T06:06:20;34.0;100.0
22674;DHT22;11504;43.334;21.918;2023-06-19T06:10:58;34.0;100.0
22674;DHT22;11504;43.334;21.918;2023-06-19T06:15:34;33.8;100.0
22674;DHT22;11504;43.334;21.918;2023-06-19T06:20:11;33.8;100.0
22674;DHT22;11504;43.334;21.918;2023-06-19T06:24:48;33.6;100.0
22674;DHT22;11504;43.334;21.918;2023-06-19T06:29:24;33.6;100.0
22674;DHT22;11504;43.334;21.918;2023-06-19T06:34:01;32.6;100.0
22674;DHT22;11504;43.334;21.918;2023-06-19T06:38:37;32.6;100.0
22674;DHT22;11504;43.334;21.918;2023-06-19T06:43:13;32.6;100.0
22674;DHT22;11504;43.334;21.918;2023-06-19T06:47:50;31.7;100.0
22674;DHT22;11504;43.334;21.918;2023-06-19T06:52:27;31.7;100.0
22674;DHT22;11504;43.334;21.918;2023-06-19T06:57:04;31.5;100.0
22674;DHT22;11504;43.334;21.918;2023-06-19T07:01:42;31.5;100.0
22674;DHT22;11504;43.334;21.918;2023-06-19T07:06:18;31.3;100.0
22674;DHT22;11504;43.334;21.918;2023-06-19T07:10:55;31.3;100.0
22674;DHT22;11504;43.334;21.918;2023-06-19T07:15:32;31.2;100.0
22674;DHT22;11504;43.334;21.918;2023-06-19T07:20:10;31.2;100.0
22674;DHT22;11504;43.334;21.918;2023-06-19T07:24:49;31.0;100.0
22674;DHT22;11504;43.334;21.918;2023-06-19T07:29:25;31.0;100.0
22674;DHT22;11504;43.334;21.918;2023-06-19T07:34:02;30.8;100.0
22674;DHT22;11504;43.334;21.918;2023-06-19T07:38:38;30.8;100.0
22674;DHT22;11504;43.334;21.918;2023-06-19T07:43:16;30.8;100.0
22674;DHT22;11504;43.334;21.918;2023-06-19T07:47:56;30.6;100.0
22674;DHT22;11504;43.334;21.918;2023-06-19T07:52:33;30.6;100.0
22674;DHT22;11504;43.334;21.918;2023-06-19T07:57:10;30.4;100.0
22674;DHT22;11504;43.334;21.918;2023-06-19T08:01:46;30.4;100.0
22674;DHT22;11504;43.334;21.918;2023-06-19T08:06:22;30.1;100.0
22674;DHT22;11504;43.334;21.918;2023-06-19T08:10:59;30.1;100.0
22674;DHT22;11504;43.334;21.918;2023-06-19T08:15:35;30.4;100.0
22674;DHT22;11504;43.334;21.918;2023-06-19T08:20:13;30.4;100.0
22674;DHT22;11504;43.334;21.918;2023-06-19T08:24:49;30.8;100.0
22674;DHT22;11504;43.334;21.918;2023-06-19T08:29:26;30.8;100.0
22674;DHT22;11504;43.334;21.918;2023-06-19T08:34:03;31.0;100.0
22674;DHT22;11504;43.334;21.918;2023-06-19T08:38:40;31.0;100.0
22674;DHT22;11504;43.334;21.918;2023-06-19T08:43:17;31.0;100.0
22674;DHT22;11504;43.334;21.918;2023-06-19T08:47:59;31.1;100.0
22674;DHT22;11504;43.334;21.918;2023-06-19T08:52:38;31.1;100.0
22674;DHT22;11504;43.334;21.918;2023-06-19T08:57:15;31.2;100.0
22674;DHT22;11504;43.334;21.918;2023-06-19T09:01:55;31.2;100.0
22674;DHT22;11504;43.334;21.918;2023-06-19T09:06:31;31.2;100.0
22674;DHT22;11504;43.334;21.918;2023-06-19T09:11:08;31.2;100.0
22674;DHT22;11504;43.334;21.918;2023-06-19T09:15:45;31.4;100.0
22674;DHT22;11504;43.334;21.918;2023-06-19T09:20:27;31.4;100.0
22674;DHT22;11504;43.334;21.918;2023-06-19T09:25:07;31.6;100.0
22674;DHT22;11504;43.334;21.918;2023-06-19T09:29:49;31.6;100.0
22674;DHT22;11504;43.334;21.918;2023-06-19T09:34:27;31.7;100.0
22674;DHT22;11504;43.334;21.918;2023-06-19T09:39:04;31.7;100.0
22674;DHT22;11504;43.334;21.918;2023-06-19T09:43:47;31.8;100.0
22674;DHT22;11504;43.334;21.918;2023-06-19T09:48:32;31.8;100.0
22674;DHT22;11504;43.334;21.918;2023-06-19T09:53:19;31.8;100.0
22674;DHT22;11504;43.334;21.918;2023-06-19T09:58:02;31.8;100.0
22674;DHT22;11504;43.334;21.918;2023-06-19T10:02:46;31.8;100.0
22674;DHT22;11504;43.334;21.918;2023-06-19T10:07:35;31.7;100.0
22674;DHT22;11504;43.334;21.918;2023-06-19T10:12:12;31.7;100.0
22674;DHT22;11504;43.334;21.918;2023-06-19T10:16:49;31.6;100.0
22674;DHT22;11504;43.334;21.918;2023-06-19T10:21:26;31.6;100.0
22674;DHT22;11504;43.334;21.918;2023-06-19T10:26:02;31.5;100.0
22674;DHT22;11504;43.334;21.918;2023-06-19T10:30:39;31.5;100.0
22674;DHT22;11504;43.334;21.918;2023-06-19T10:35:18;31.4;100.0
22674;DHT22;11504;43.334;21.918;2023-06-19T10:39:55;31.4;100.0
22674;DHT22;11504;43.334;21.918;2023-06-19T10:44:31;31.4;100.0
22674;DHT22;11504;43.334;21.918;2023-06-19T10:49:10;31.4;100.0
22674;DHT22;11504;43.334;21.918;2023-06-19T10:53:47;31.1;100.0
22674;DHT22;11504;43.334;21.918;2023-06-19T10:58:24;31.1;100.0
22674;DHT22;11504;43.334;21.918;2023-06-19T11:03:01;31.1;100.0
22674;DHT22;11504;43.334;21.918;2023-06-19T11:07:38;30.8;100.0
22674;DHT22;11504;43.334;21.918;2023-06-19T11:12:21;30.8;100.0
22674;DHT22;11504;43.334;21.918;2023-06-19T11:16:58;30.6;100.0
22674;DHT22;11504;43.334;21.918;2023-06-19T11:21:37;30.6;100.0
22674;DHT22;11504;43.334;21.918;2023-06-19T11:26:13;30.3;100.0
22674;DHT22;11504;43.334;21.918;2023-06-19T11:31:02;30.3;100.0
22674;DHT22;11504;43.334;21.918;2023-06-19T11:35:39;30.2;100.0
22674;DHT22;11504;43.334;21.918;2023-06-19T11:40:16;30.2;100.0
22674;DHT22;11504;43.334;21.918;2023-06-19T11:44:54;30.1;100.0
22674;DHT22;11504;43.334;21.918;2023-06-19T11:49:35;30.1;100.0
22674;DHT22;11504;43.334;21.918;2023-06-19T11:54:14;30.1;100.0
22674;DHT22;11504;43.334;21.918;2023-06-19T11:58:51;30.1;100.0
22674;DHT22;11504;43.334;21.918;2023-06-19T12:03:28;30.1;100.0
22674;DHT22;11504;43.334;21.918;2023-06-19T12:08:06;30.1;100.0
22674;DHT22;11504;43.334;21.918;2023-06-19T12:12:42;30.1;100.0
22674;DHT22;11504;43.334;21.918;2023-06-19T12:17:18;30.1;100.0
22674;DHT22;11504;43.334;21.918;2023-06-19T12:21:55;30.1;100.0
22674;DHT22;11504;43.334;21.918;2023-06-19T12:26:34;30.1;100.0
22674;DHT22;11504;43.334;21.918;2023-06-19T12:31:12;30.1;100.0
22674;DHT22;11504;43.334;21.918;2023-06-19T12:35:50;30.0;100.0
22674;DHT22;11504;43.334;21.918;2023-06-19T12:40:26;30.0;100.0
22674;DHT22;11504;43.334;21.918;2023-06-19T12:45:06;30.0;100.0
22674;DHT22;11504;43.334;21.918;2023-06-19T12:49:46;30.0;100.0
22674;DHT22;11504;43.334;21.918;2023-06-19T12:54:23;29.9;100.0
22674;DHT22;11504;43.334;21.918;2023-06-19T12:59:00;29.9;100.0
22674;DHT22;11504;43.334;21.918;2023-06-19T13:03:36;29.9;100.0
22674;DHT22;11504;43.334;21.918;2023-06-19T13:08:13;29.8;100.0
22674;DHT22;11504;43.334;21.918;2023-06-19T13:12:51;29.8;100.0
22674;DHT22;11504;43.334;21.918;2023-06-19T13:17:27;29.8;100.0
22674;DHT22;11504;43.334;21.918;2023-06-19T13:22:04;29.8;100.0
22674;DHT22;11504;43.334;21.918;2023-06-19T13:26:40;29.7;100.0
22674;DHT22;11504;43.334;21.918;2023-06-19T13:31:17;29.7;100.0
22674;DHT22;11504;43.334;21.918;2023-06-19T13:35:53;29.6;100.0
22674;DHT22;11504;43.334;21.918;2023-06-19T13:40:30;29.6;100.0
22674;DHT22;11504;43.334;21.918;2023-06-19T13:45:08;29.6;100.0
22674;DHT22;11504;43.334;21.918;2023-06-19T13:49:46;29.6;100.0
22674;DHT22;11504;43.334;21.918;2023-06-19T13:54:23;29.6;100.0
22674;DHT22;11504;43.334;21.918;2023-06-19T13:59:00;29.6;100.0
22674;DHT22;11504;43.334;21.918;2023-06-19T14:03:38;29.6;100.0
22674;DHT22;11504;43.334;21.918;2023-06-19T14:08:15;29.5;100.0
22674;DHT22;11504;43.334;21.918;2023-06-19T14:12:52;29.5;100.0
22674;DHT22;11504;43.334;21.918;2023-06-19T14:17:29;29.4;100.0
22674;DHT22;11504;43.334;21.918;2023-06-19T14:22:05;29.4;100.0
22674;DHT22;11504;43.334;21.918;2023-06-19T14:26:42;29.2;100.0
22674;DHT22;11504;43.334;21.918;2023-06-19T14:31:18;29.2;100.0
22674;DHT22;11504;43.334;21.918;2023-06-19T14:35:54;29.1;100.0
22674;DHT22;11504;43.334;21.918;2023-06-19T14:40:31;29.1;100.0
22674;DHT22;11504;43.334;21.918;2023-06-19T14:45:09;29.0;100.0
22674;DHT22;11504;43.334;21.918;2023-06-19T14:49:46;29.0;100.0
22674;DHT22;11504;43.334;21.918;2023-06-19T14:54:23;28.9;100.0
22674;DHT22;11504;43.334;21.918;2023-06-19T14:59:00;28.9;100.0
22674;DHT22;11504;43.334;21.918;2023-06-19T15:03:37;28.9;100.0
22674;DHT22;11504;43.334;21.918;2023-06-19T15:08:13;28.8;100.0
22674;DHT22;11504;43.334;21.918;2023-06-19T15:12:50;28.8;100.0
22674;DHT22;11504;43.334;21.918;2023-06-19T15:17:27;28.6;100.0
22674;DHT22;11504;43.334;21.918;2023-06-19T15:22:05;28.6;100.0
22674;DHT22;11504;43.334;21.918;2023-06-19T15:26:42;28.5;100.0
22674;DHT22;11504;43.334;21.918;2023-06-19T15:31:22;28.5;100.0
22674;DHT22;11504;43.334;21.918;2023-06-19T15:36:03;28.4;100.0
22674;DHT22;11504;43.334;21.918;2023-06-19T15:40:40;28.4;100.0
22674;DHT22;11504;43.334;21.918;2023-06-19T15:45:17;28.3;100.0
22674;DHT22;11504;43.334;21.918;2023-06-19T15:49:53;28.3;100.0
22674;DHT22;11504;43.334;21.918;2023-06-19T15:54:30;28.2;100.0
22674;DHT22;11504;43.334;21.918;2023-06-19T15:59:06;28.2;100.0
22674;DHT22;11504;43.334;21.918;2023-06-19T16:03:43;28.2;100.0
22674;DHT22;11504;43.334;21.918;2023-06-19T16:08:22;28.2;100.0
22674;DHT22;11504;43.334;21.918;2023-06-19T16:12:58;28.2;100.0
22674;DHT22;11504;43.334;21.918;2023-06-19T16:17:35;28.1;100.0
22674;DHT22;11504;43.334;21.918;2023-06-19T16:22:11;28.1;100.0
22674;DHT22;11504;43.334;21.918;2023-06-19T16:26:48;28.0;100.0
22674;DHT22;11504;43.334;21.918;2023-06-19T16:31:24;28.0;100.0
22674;DHT22;11504;43.334;21.918;2023-06-19T16:36:01;27.8;100.0
22674;DHT22;11504;43.334;21.918;2023-06-19T16:40:37;27.8;100.0
22674;DHT22;11504;43.334;21.918;2023-06-19T16:45:14;27.7;100.0
22674;DHT22;11504;43.334;21.918;2023-06-19T16:49:51;27.7;100.0
22674;DHT22;11504;43.334;21.918;2023-06-19T16:54:27;27.5;100.0
22674;DHT22;11504;43.334;21.918;2023-06-19T16:59:04;27.5;100.0
22674;DHT22;11504;43.334;21.918;2023-06-19T17:03:40;27.5;100.0
22674;DHT22;11504;43.334;21.918;2023-06-19T17:08:16;27.3;100.0
22674;DHT22;11504;43.334;21.918;2023-06-19T17:12:53;27.3;100.0
22674;DHT22;11504;43.334;21.918;2023-06-19T17:17:29;27.2;100.0
22674;DHT22;11504;43.334;21.918;2023-06-19T17:22:05;27.2;100.0
22674;DHT22;11504;43.334;21.918;2023-06-19T17:26:41;27.1;100.0
22674;DHT22;11504;43.334;21.918;2023-06-19T17:31:18;27.1;100.0
22674;DHT22;11504;43.334;21.918;2023-06-19T17:35:54;26.9;100.0
22674;DHT22;11504;43.334;21.918;2023-06-19T17:40:31;26.9;100.0
22674;DHT22;11504;43.334;21.918;2023-06-19T17:45:10;26.7;100.0
22674;DHT22;11504;43.334;21.918;2023-06-19T17:49:46;26.7;100.0
22674;DHT22;11504;43.334;21.918;2023-06-19T17:54:23;26.5;100.0
22674;DHT22;11504;43.334;21.918;2023-06-19T17:59:00;26.5;100.0
22674;DHT22;11504;43.334;21.918;2023-06-19T18:03:37;26.5;100.0
22674;DHT22;11504;43.334;21.918;2023-06-19T18:08:13;26.3;100.0
22674;DHT22;11504;43.334;21.918;2023-06-19T18:12:50;26.3;100.0
22674;DHT22;11504;43.334;21.918;2023-06-19T18:17:27;26.0;100.0
22674;DHT22;11504;43.334;21.918;2023-06-19T18:22:04;26.0;100.0
22674;DHT22;11504;43.334;21.918;2023-06-19T18:26:41;25.7;100.0
22674;DHT22;11504;43.334;21.918;2023-06-19T18:31:17;25.7;100.0
22674;DHT22;11504;43.334;21.918;2023-06-19T18:35:53;25.4;100.0
22674;DHT22;11504;43.334;21.918;2023-06-19T18:40:30;25.4;100.0
22674;DHT22;11504;43.334;21.918;2023-06-19T18:45:09;25.1;100.0
22674;DHT22;11504;43.334;21.918;2023-06-19T18:49:46;25.1;100.0
22674;DHT22;11504;43.334;21.918;2023-06-19T18:54:22;24.8;100.0
22674;DHT22;11504;43.334;21.918;2023-06-19T18:58:58;24.8;100.0
22674;DHT22;11504;43.334;21.918;2023-06-19T19:03:35;24.8;100.0
22674;DHT22;11504;43.334;21.918;2023-06-19T19:08:11;24.6;100.0
22674;DHT22;11504;43.334;21.918;2023-06-19T19:12:48;24.6;100.0
22674;DHT22;11504;43.334;21.918;2023-06-19T19:17:25;24.4;100.0
22674;DHT22;11504;43.334;21.918;2023-06-19T19:22:01;24.4;100.0
22674;DHT22;11504;43.334;21.918;2023-06-19T19:26:38;24.1;100.0
22674;DHT22;11504;43.334;21.918;2023-06-19T19:31:18;24.1;100.0
22674;DHT22;11504;43.334;21.918;2023-06-19T19:35:55;23.9;100.0
22674;DHT22;11504;43.334;21.918;2023-06-19T19:40:31;23.9;100.0
22674;DHT22;11504;43.334;21.918;2023-06-19T19:45:10;23.7;100.0
22674;DHT22;11504;43.334;21.918;2023-06-19T19:49:46;23.7;100.0
22674;DHT22;11504;43.334;21.918;2023-06-19T19:54:22;23.4;100.0
22674;DHT22;11504;43.334;21.918;2023-06-19T19:58:58;23.4;100.0
22674;DHT22;11504;43.334;21.918;2023-06-19T20:03:34;23.4;100.0
22674;DHT22;11504;43.334;21.918;2023-06-19T20:08:11;23.2;100.0
22674;DHT22;11504;43.334;21.918;2023-06-19T20:12:47;23.2;100.0
22674;DHT22;11504;43.334;21.918;2023-06-19T20:17:24;23.0;100.0
22674;DHT22;11504;43.334;21.918;2023-06-19T20:22:00;23.0;100.0
22674;DHT22;11504;43.334;21.918;2023-06-19T20:26:37;22.7;100.0
22674;DHT22;11504;43.334;21.918;2023-06-19T20:31:13;22.7;100.0
22674;DHT22;11504;43.334;21.918;2023-06-19T20:35:51;22.4;100.0
22674;DHT22;11504;43.334;21.918;2023-06-19T20:40:28;22.4;100.0
22674;DHT22;11504;43.334;21.918;2023-06-19T20:45:06;22.1;100.0
22674;DHT22;11504;43.334;21.918;2023-06-19T20:49:46;22.1;100.0
22674;DHT22;11504;43.334;21.918;2023-06-19T20:54:23;21.8;100.0
22674;DHT22;11504;43.334;21.918;2023-06-19T20:59:00;21.8;100.0
22674;DHT22;11504;43.334;21.918;2023-06-19T21:03:36;21.8;100.0
22674;DHT22;11504;43.334;21.918;2023-06-19T21:08:13;21.5;100.0
22674;DHT22;11504;43.334;21.918;2023-06-19T21:12:50;21.5;100.0
22674;DHT22;11504;43.334;21.918;2023-06-19T21:17:26;21.3;100.0
22674;DHT22;11504;43.334;21.918;2023-06-19T21:22:03;21.3;100.0
22674;DHT22;11504;43.334;21.918;2023-06-19T21:26:40;21.1;100.0
22674;DHT22;11504;43.334;21.918;2023-06-19T21:31:17;21.1;100.0
22674;DHT22;11504;43.334;21.918;2023-06-19T21:35:53;21.1;100.0
22674;DHT22;11504;43.334;21.918;2023-06-19T21:40:30;21.1;100.0
22674;DHT22;11504;43.334;21.918;2023-06-19T21:54:22;20.7;100.0
22674;DHT22;11504;43.334;21.918;2023-06-19T21:58:59;20.7;100.0
22674;DHT22;11504;43.334;21.918;2023-06-19T22:03:35;20.7;100.0
22674;DHT22;11504;43.334;21.918;2023-06-19T22:08:12;20.7;100.0
22674;DHT22;11504;43.334;21.918;2023-06-19T22:12:49;20.7;100.0
22674;DHT22;11504;43.334;21.918;2023-06-19T22:17:25;20.6;100.0
22674;DHT22;11504;43.334;21.918;2023-06-19T22:22:02;20.6;100.0
22674;DHT22;11504;43.334;21.918;2023-06-19T22:26:38;20.6;100.0
22674;DHT22;11504;43.334;21.918;2023-06-19T22:31:14;20.6;100.0
22674;DHT22;11504;43.334;21.918;2023-06-19T22:35:50;20.4;100.0
22674;DHT22;11504;43.334;21.918;2023-06-19T22:40:27;20.4;100.0
22674;DHT22;11504;43.334;21.918;2023-06-19T22:45:08;20.2;100.0
22674;DHT22;11504;43.334;21.918;2023-06-19T22:49:46;20.2;100.0
22674;DHT22;11504;43.334;21.918;2023-06-19T22:54:23;20.1;100.0
22674;DHT22;11504;43.334;21.918;2023-06-19T22:59:00;20.1;100.0
22674;DHT22;11504;43.334;21.918;2023-06-19T23:03:40;20.1;100.0
22674;DHT22;11504;43.334;21.918;2023-06-19T23:08:17;20.0;100.0
22674;DHT22;11504;43.334;21.918;2023-06-19T23:12:54;20.0;100.0
22674;DHT22;11504;43.334;21.918;2023-06-19T23:17:30;19.9;100.0
22674;DHT22;11504;43.334;21.918;2023-06-19T23:22:07;19.9;100.0
22674;DHT22;11504;43.334;21.918;2023-06-19T23:26:44;19.8;100.0
22674;DHT22;11504;43.334;21.918;2023-06-19T23:31:21;19.8;100.0
22674;DHT22;11504;43.334;21.918;2023-06-19T23:35:58;19.6;100.0
22674;DHT22;11504;43.334;21.918;2023-06-19T23:40:35;19.6;100.0
22674;DHT22;11504;43.334;21.918;2023-06-19T23:45:11;19.3;100.0
22674;DHT22;11504;43.334;21.918;2023-06-19T23:49:48;19.3;100.0
22674;DHT22;11504;43.334;21.918;2023-06-19T23:54:24;19.2;100.0
22674;DHT22;11504;43.334;21.918;2023-06-19T23:59:01;19.2;100.0
